Latest Weather Observations for Cape Jaffa

IDS60801

Issued at 5:35 pm CDT Wednesday 26 November 2014 (issued every 30 minutes, with the page automatically refreshed every 10 minutes)

About weather observations | Map of weather stations | Latest weather observations for SA | Other Formats
Station Details ID: 026095 Name: THE LIMESTONE Lat: -36.97 Lon: 139.72 Height: 17.0 m
Data from the previous 72 hours. | See also: Recent months at Cape Jaffa
Date/Time
CDT
Temp
°C
App
Temp
°C
Dew
Point
Rel
Hum
%
Delta-T
°C
Wind Press
QNH
hPa
Press
MSL
hPa
Rain
since 9 am
mm
Dir
 
Spd
km/h
Gust
km/h
Spd
kts
Gust
kts
26/05:30pm 17.8 13.6 12.3 70 3.0 S 26 32 14 17 1022.9 1022.9 -
26/05:00pm 17.5 13.2 12.0 70 3.0 SSW 26 33 14 18 1023.0 1023.0 -
26/04:30pm 16.3 11.5 11.5 73 2.6 SSW 28 33 15 18 1023.3 1023.3 -
26/04:00pm 18.0 14.3 11.6 66 3.5 SW 22 30 12 16 1023.5 1023.5 -
26/03:30pm 18.6 13.9 12.1 66 3.6 SSW 28 33 15 18 1023.7 1023.7 -
26/03:00pm 18.1 14.1 11.7 66 3.5 SW 24 33 13 18 1023.9 1023.9 -
26/02:00pm 18.8 14.7 11.4 62 4.1 SW 24 32 13 17 1024.1 1024.1 -
26/01:30pm 18.5 14.9 10.6 60 4.2 SW 20 28 11 15 1024.1 1024.1 -
26/01:00pm 18.6 14.7 10.9 61 4.2 SW 22 32 12 17 1024.1 1024.1 -
26/12:30pm 18.4 14.9 10.8 61 4.1 SW 20 28 11 15 1024.3 1024.3 -
26/12:00pm 17.5 13.4 10.1 62 3.9 WSW 22 32 12 17 1024.4 1024.4 -
26/09:30am 15.7 12.2 8.7 63 3.6 SW 17 20 9 11 1024.0 1024.0 0.0
26/09:00am 16.1 13.7 8.8 62 3.7 SW 11 17 6 9 1023.9 1023.9 0.0
26/08:30am 15.5 12.2 9.4 67 3.1 SW 17 22 9 12 1023.6 1023.6 0.0
26/08:00am 14.6 10.7 9.4 71 2.7 SSW 20 26 11 14 1023.1 1023.1 0.0
26/07:30am 14.9 12.0 8.2 64 3.3 SW 13 17 7 9 1022.7 1022.7 0.0
26/07:00am 14.6 12.1 8.1 65 3.2 SW 11 19 6 10 1022.4 1022.4 0.0
26/06:30am 14.3 11.2 8.7 69 2.8 SW 15 22 8 12 1022.3 1022.3 0.0
26/06:00am 14.2 10.7 8.6 69 2.8 SW 17 20 9 11 1022.1 1022.1 0.0
26/05:30am 14.3 10.9 7.6 64 3.3 WSW 15 19 8 10 1021.9 1021.9 0.0
26/05:00am 14.3 10.8 7.4 63 3.4 SW 15 20 8 11 1021.6 1021.6 0.0
26/04:30am 14.2 11.0 7.0 62 3.5 SW 13 20 7 11 1021.7 1021.7 0.0
26/04:00am 14.2 10.0 7.3 63 3.4 SW 19 26 10 14 1021.5 1021.5 0.0
26/03:30am 14.3 10.0 7.1 62 3.5 WSW 19 28 10 15 1021.3 1021.3 0.0
26/03:00am 14.3 11.3 7.6 64 3.3 WSW 13 20 7 11 1021.5 1021.5 0.0
26/02:30am 14.2 11.1 7.3 63 3.4 SW 13 19 7 10 1021.7 1021.7 0.0
26/02:00am 14.1 11.2 6.7 61 3.6 SW 11 19 6 10 1021.8 1021.8 0.0
26/01:30am 13.9 11.0 6.5 61 3.5 SW 11 17 6 9 1022.0 1022.0 0.0
26/01:00am 12.9 9.9 5.8 62 3.3 SW 11 15 6 8 1022.4 1022.4 0.0
26/12:30am 13.0 9.2 5.7 61 3.4 SSW 15 19 8 10 1022.5 1022.5 0.0
26/12:00am 13.9 10.9 6.0 59 3.7 SW 11 15 6 8 1022.7 1022.7 0.0
 
Date/Time
CDT
Temp
°C
App
Temp
°C
Dew
Point
Rel
Hum
%
Delta-T
°C
Wind Press
QNH
hPa
Press
MSL
hPa
Rain
since 9 am
mm
Dir
 
Spd
km/h
Gust
km/h
Spd
kts
Gust
kts
25/11:30pm 14.0 10.7 6.4 60 3.6 SW 13 17 7 9 1023.0 1023.0 0.0
25/11:00pm 13.7 10.0 6.1 60 3.6 WSW 15 20 8 11 1023.2 1023.2 0.0
25/10:30pm 13.4 9.3 6.0 61 3.5 WSW 17 20 9 11 1023.3 1023.3 0.0
25/10:00pm 13.8 10.1 6.4 61 3.6 SW 15 20 8 11 1023.2 1023.2 0.0
25/09:30pm 13.8 9.7 6.2 60 3.6 SW 17 20 9 11 1023.2 1023.2 0.0
25/09:00pm 14.3 10.2 6.4 59 3.8 SW 17 22 9 12 1023.0 1023.0 0.0
25/08:30pm 14.2 10.0 5.6 56 4.0 SW 17 22 9 12 1023.0 1023.0 0.0
25/08:00pm 14.0 10.2 5.9 58 3.9 SW 15 20 8 11 1022.8 1022.8 0.0
25/07:30pm 14.9 9.8 6.2 56 4.2 SW 22 28 12 15 1022.6 1022.6 0.0
25/07:00pm 15.7 10.8 6.7 55 4.4 SW 22 32 12 17 1022.4 1022.4 0.0
25/06:30pm 16.1 11.2 7.1 55 4.4 WSW 22 26 12 14 1022.2 1022.2 0.0
25/06:00pm 16.8 11.5 6.6 51 5.0 WSW 24 32 13 17 1022.0 1022.0 0.0
25/05:30pm 17.0 11.3 6.5 50 5.1 WSW 26 32 14 17 1021.9 1021.9 0.0
25/05:00pm 17.6 11.8 6.2 47 5.6 WSW 26 33 14 18 1021.8 1021.8 0.0
25/04:30pm 17.6 11.9 6.8 49 5.3 WSW 26 35 14 19 1021.8 1021.8 0.0
25/04:00pm 18.0 12.0 7.1 49 5.5 WSW 28 35 15 19 1021.9 1021.9 0.0
25/03:30pm 18.2 12.4 6.4 46 5.8 WSW 26 35 14 19 1021.9 1021.9 0.0
25/03:00pm 17.6 11.9 6.8 49 5.3 WSW 26 33 14 18 1022.2 1022.2 0.0
25/02:30pm 18.6 13.4 7.4 48 5.6 WSW 24 32 13 17 1022.2 1022.2 0.0
25/02:00pm 18.1 12.4 6.6 47 5.7 WSW 26 35 14 19 1022.2 1022.2 0.0
25/01:30pm 18.6 12.3 5.5 42 6.4 WSW 28 37 15 20 1022.2 1022.2 0.0
25/01:00pm 17.9 12.4 5.8 45 5.9 WSW 24 33 13 18 1022.3 1022.3 0.0
25/12:30pm 18.4 12.5 5.9 44 6.1 WSW 26 32 14 17 1022.4 1022.4 0.0
25/12:00pm 18.1 12.1 7.2 49 5.5 WSW 28 35 15 19 1022.3 1022.3 0.0
25/11:30am 18.5 12.1 5.0 41 6.5 WSW 28 37 15 20 1022.1 1022.1 0.0
25/11:00am 17.5 11.7 6.4 48 5.5 WSW 26 35 14 19 1022.1 1022.1 0.0
25/10:30am 16.7 11.8 7.1 53 4.8 W 22 33 12 18 1022.1 1022.1 0.0
25/10:00am 17.6 11.5 6.5 48 5.5 W 28 37 15 20 1021.9 1021.9 0.0
25/09:30am 16.9 11.7 5.5 47 5.5 WSW 22 28 12 15 1021.8 1021.8 0.0
25/09:00am 16.1 10.5 5.4 49 5.1 W 24 32 13 17 1021.5 1021.5 0.0
25/08:30am 15.1 9.6 7.4 60 3.8 WSW 26 33 14 18 1021.2 1021.2 0.0
25/08:00am 15.2 11.1 8.0 62 3.6 WSW 19 24 10 13 1020.9 1020.9 0.0
25/07:30am 14.9 10.0 6.7 58 4.0 WSW 22 28 12 15 1020.5 1020.5 0.0
25/07:00am 15.2 10.0 5.7 53 4.5 WSW 22 30 12 16 1020.1 1020.1 0.0
25/06:30am 14.2 8.1 4.8 53 4.4 WSW 26 35 14 19 1019.7 1019.7 0.0
25/06:00am 14.2 9.1 7.5 64 3.3 SW 24 33 13 18 1019.2 1019.2 0.0
25/05:30am 13.6 9.0 8.2 70 2.7 SW 22 32 12 17 1018.8 1018.8 0.0
25/05:00am 13.4 7.9 7.6 68 2.8 WSW 26 37 14 20 1018.4 1018.4 0.0
25/04:30am 13.5 7.4 8.1 70 2.7 WSW 30 39 16 21 1018.0 1018.0 0.0
25/04:00am 13.2 7.7 9.3 77 2.0 WSW 28 35 15 19 1018.1 1018.1 0.0
25/03:30am 14.1 8.8 8.5 69 2.8 WSW 26 33 14 18 1017.9 1017.9 0.0
25/03:00am 13.9 8.4 7.7 66 3.1 WSW 26 35 14 19 1017.8 1017.8 0.0
25/02:30am 14.1 8.2 7.6 65 3.2 WSW 28 33 15 18 1017.8 1017.8 0.0
25/02:00am 14.2 9.3 8.4 68 2.9 SW 24 33 13 18 1017.9 1017.9 0.0
25/01:30am 14.2 8.7 7.5 64 3.3 WSW 26 35 14 19 1017.9 1017.9 0.0
25/01:00am 14.3 8.2 8.3 67 3.0 WSW 30 37 16 20 1017.9 1017.9 0.0
25/12:30am 14.3 8.5 8.0 66 3.1 WSW 28 37 15 20 1017.8 1017.8 0.0
25/12:00am 14.4 8.2 7.9 65 3.2 WSW 30 41 16 22 1017.6 1017.5 0.0
 
Date/Time
CDT
Temp
°C
App
Temp
°C
Dew
Point
Rel
Hum
%
Delta-T
°C
Wind Press
QNH
hPa
Press
MSL
hPa
Rain
since 9 am
mm
Dir
 
Spd
km/h
Gust
km/h
Spd
kts
Gust
kts
24/11:30pm 14.7 9.0 8.2 65 3.3 WSW 28 37 15 20 1017.6 1017.5 0.0
24/11:00pm 14.4 7.5 7.2 62 3.5 WSW 33 43 18 23 1017.5 1017.4 0.0
24/10:30pm 14.4 7.6 7.5 63 3.4 WSW 33 44 18 24 1017.4 1017.3 0.0
24/10:00pm 14.7 8.7 8.6 67 3.1 WSW 30 41 16 22 1017.1 1017.0 0.0
24/09:30pm 14.6 6.9 6.9 60 3.7 WSW 37 44 20 24 1016.7 1016.6 0.0
24/09:00pm 14.6 8.1 8.3 66 3.2 WSW 32 43 17 23 1016.5 1016.4 0.0
24/08:30pm 14.3 7.6 8.3 67 3.0 WSW 33 44 18 24 1016.2 1016.1 0.0
24/08:00pm 15.0 8.4 7.8 62 3.6 WSW 32 41 17 22 1015.8 1015.7 0.0
24/07:30pm 15.4 8.5 6.4 55 4.4 WSW 32 43 17 23 1015.4 1015.3 0.0
24/07:00pm 16.0 7.9 5.3 49 5.1 WSW 37 46 20 25 1014.9 1014.8 0.0
24/06:30pm 16.5 8.6 6.1 50 5.1 WSW 37 50 20 27 1014.5 1014.4 0.0
24/06:00pm 15.8 8.1 7.1 56 4.3 WSW 37 46 20 25 1014.1 1014.0 0.0
24/05:30pm 16.6 9.5 8.1 57 4.3 WSW 35 44 19 24 1013.9 1013.8 0.0
24/05:00pm 17.8 10.3 7.8 52 5.1 WSW 37 48 20 26 1013.6 1013.5 0.0
24/04:30pm 18.3 10.7 7.4 49 5.5 WSW 37 48 20 26 1013.4 1013.3 0.0
24/04:00pm 18.8 11.1 6.9 46 6.0 W 37 48 20 26 1013.3 1013.2 0.0
24/03:30pm 18.7 11.5 7.5 48 5.7 W 35 46 19 25 1013.1 1013.0 0.0
24/03:00pm 18.5 11.1 8.5 52 5.2 WSW 37 46 20 25 1013.0 1012.9 0.0
24/02:30pm 18.6 11.6 8.6 52 5.2 WSW 35 43 19 23 1012.9 1012.8 0.0
24/02:00pm 19.2 12.0 9.1 52 5.3 WSW 37 46 20 25 1012.7 1012.6 0.0
24/01:30pm 19.1 11.7 9.9 55 4.9 WSW 39 48 21 26 1012.6 1012.5 0.0
24/01:00pm 18.9 11.4 9.4 54 5.0 WSW 39 46 21 25 1012.2 1012.1 0.0
24/12:30pm 18.2 11.2 10.1 59 4.3 WSW 37 48 20 26 1012.0 1011.9 0.0
24/12:00pm 18.3 12.1 9.9 58 4.5 WSW 33 48 18 26 1011.8 1011.7 0.0
24/11:30am 16.6 10.4 9.5 63 3.7 WSW 32 43 17 23 1011.7 1011.6 0.0
24/11:00am 15.7 10.3 12.8 83 1.6 WSW 33 43 18 23 1011.6 1011.5 0.0
24/10:30am 18.6 14.7 12.1 66 3.6 WSW 24 33 13 18 1011.3 1011.2 0.0
24/10:00am 19.3 16.2 12.1 63 4.0 WSW 20 26 11 14 1011.0 1010.9 0.0
24/09:30am 19.0 16.5 12.3 65 3.7 SW 17 26 9 14 1010.8 1010.7 0.0
24/09:00am 18.9 16.4 12.4 66 3.6 SSW 17 22 9 12 1010.3 1010.2 0.0
24/08:30am 18.1 14.6 12.1 68 3.3 SW 22 28 12 15 1010.1 1010.0 0.0
24/08:00am 16.9 14.2 11.8 72 2.8 SSW 17 22 9 12 1010.1 1010.0 0.0
24/07:30am 16.4 13.5 11.1 71 2.9 SSW 17 22 9 12 1009.8 1009.7 0.0
24/07:00am 16.2 14.0 10.9 71 2.8 S 13 17 7 9 1009.3 1009.2 0.0
24/06:30am 15.8 12.8 10.8 72 2.7 S 17 22 9 12 1009.3 1009.2 0.0
24/06:00am 15.8 13.5 11.6 76 2.3 SSW 15 22 8 12 1009.2 1009.1 0.0
24/05:30am 15.0 13.5 12.0 82 1.6 S 11 13 6 7 1009.0 1008.9 0.0
24/05:00am 15.2 13.7 11.8 80 1.8 S 11 13 6 7 1008.9 1008.8 0.0
24/04:30am 15.4 14.0 12.3 82 1.7 S 11 15 6 8 1008.8 1008.7 0.0
24/04:00am 15.3 13.1 12.2 82 1.7 S 15 17 8 9 1008.6 1008.5 0.0
24/03:30am 15.5 12.5 10.5 72 2.6 S 17 20 9 11 1008.4 1008.3 0.0
24/03:00am 14.7 12.6 11.3 80 1.8 S 13 19 7 10 1008.8 1008.7 0.0
24/02:30am 12.7 10.3 10.2 85 1.3 S 13 15 7 8 1008.7 1008.6 0.0
24/02:00am 13.2 11.4 9.3 77 2.0 SSE 9 9 5 5 1008.7 1008.6 0.0
24/01:30am 14.0 12.2 9.4 74 2.4 ESE 9 13 5 7 1009.0 1008.9 0.0
24/01:00am 14.0 12.2 9.6 75 2.3 ESE 9 15 5 8 1008.9 1008.8 0.0
24/12:30am 13.3 11.8 10.5 83 1.5 SE 9 11 5 6 1009.7 1009.6 0.0
24/12:00am 13.9 12.8 10.7 81 1.7 ESE 7 9 4 5 1010.6 1010.5 0.0
 
Date/Time
CDT
Temp
°C
App
Temp
°C
Dew
Point
Rel
Hum
%
Delta-T
°C
Wind Press
QNH
hPa
Press
MSL
hPa
Rain
since 9 am
mm
Dir
 
Spd
km/h
Gust
km/h
Spd
kts
Gust
kts
23/11:30pm 14.3 13.2 10.5 78 2.0 ESE 7 9 4 5 1011.1 1011.0 0.0
23/11:00pm 15.0 14.3 11.4 79 1.9 SSE 6 7 3 4 1011.4 1011.3 0.0
23/10:30pm 15.4 13.8 11.6 78 2.1 S 11 15 6 8 1011.5 1011.4 0.0
23/10:00pm 14.9 13.3 11.5 80 1.8 SSE 11 15 6 8 1011.7 1011.6 0.0
23/09:30pm 15.4 13.9 11.8 79 1.9 SSE 11 13 6 7 1011.8 1011.7 0.0
23/09:00pm 15.9 14.3 11.7 76 2.3 S 11 15 6 8 1011.7 1011.6 0.0
23/08:30pm 16.7 15.0 12.3 75 2.4 S 13 17 7 9 1011.2 1011.1 0.0
23/08:00pm 17.2 15.5 12.3 73 2.7 S 13 17 7 9 1010.9 1010.8 0.0
23/07:30pm 17.5 16.9 12.2 71 2.9 S 7 11 4 6 1011.2 1011.1 0.0
23/07:00pm 17.4 16.4 12.3 72 2.8 S 9 13 5 7 1011.3 1011.2 0.0
23/06:30pm 17.5 16.7 12.8 74 2.6 SW 9 15 5 8 1011.5 1011.4 0.0
23/06:00pm 17.8 15.7 12.5 71 2.9 W 15 19 8 10 1012.6 1012.5 0.0

Other Formats:

Comma delimited format used in spreadsheet applications
http://www.bom.gov.au/fwo/IDS60801/IDS60801.94813.axf

JavaScript Object Notation format (JSON) in row-major order
http://www.bom.gov.au/fwo/IDS60801/IDS60801.94813.json